Time;durP1;ratioP1;P1;durP2;ratioP2;P2;SDS_P1;SDS_P2;PMS_P1;PMS_P2;Temp;Humidity;BMP_temperature;BMP_pressure;BME280_temperature;BME280_humidity;BME280_pressure;Samples;Min_cycle;Max_cycle;Signal;HPM_P1;HPM_P2
2023/04/05 00:00:16;;;;;;;;;;;;;;;;;;5089076;28;19919;-41
2023/04/05 05:09:59;;;;;;;;;;;;;;;;;;5089899;28;19989;-40
2023/04/05 05:12:25;;;;;;;;;;;;;;;;;;5074212;28;19912;-41
2023/04/05 05:14:51;;;;;;;;;;;;;;;;;;5070515;28;20410;-41
2023/04/05 05:17:17;;;;;;;;;;;;;;;;;;5065703;28;19912;-40
2023/04/05 05:19:43;;;;;;;;;;;;;;;;;;5061155;28;19909;-40
2023/04/05 05:22:09;;;;;;;;;;;;;;;;;;5068941;28;19904;-41
2023/04/05 05:24:35;;;;;;;;;;;;;;;;;;5069048;28;19904;-41
2023/04/05 05:27:01;;;;;;;;;;;;;;;;;;5068713;28;19912;-40
2023/04/05 05:29:27;;;;;;;;;;;;;;;;;;5068967;28;20281;-41
2023/04/05 05:31:53;;;;;;;;;;;;;;;;;;5068839;28;20422;-41
2023/04/05 05:34:19;;;;;;;;;;;;;;;;;;5069255;28;19991;-40
2023/04/05 05:36:46;;;;;;;;;;;;;;;;;;5068238;28;20359;-41
2023/04/05 05:39:12;;;;;;;;;;;;;;;;;;5068771;28;19912;-41
2023/04/05 05:41:38;;;;;;;;;;;;;;;;;;5064854;28;19944;-40
2023/04/05 05:44:04;;;;;;;;;;;;;;;;;;5069513;28;19908;-40
2023/04/05 05:46:30;;;;;;;;;;;;;;;;;;5068681;28;19912;-41
2023/04/05 05:48:56;;;;;;;;;;;;;;;;;;5070779;28;19999;-40
2023/04/05 05:51:22;;;;;;;;;;;;;;;;;;5066647;28;19916;-40
2023/04/05 05:53:48;;;;;;;;;;;;;;;;;;5071795;28;19916;-40
2023/04/05 05:56:14;;;;;;;;;;;;;;;;;;5070688;28;19912;-40
2023/04/05 05:58:40;;;;;;;;;;;;;;;;;;5069798;28;19904;-40
2023/04/05 06:01:06;;;;;;;;;;;;;;;;;;5080526;28;20012;-40
2023/04/05 06:03:32;;;;;;;;;;;;;;;;;;5090966;28;19919;-40
2023/04/05 06:05:58;;;;;;;;;;;;;;;;;;5090612;28;19916;-40
2023/04/05 06:08:24;;;;;;;;;;;;;;;;;;5090607;28;19904;-40
2023/04/05 06:10:50;;;;;;;;;;;;;;;;;;5080522;28;19942;-40
2023/04/05 06:13:16;;;;;;;;;;;;;;;;;;5070660;28;19904;-40
2023/04/05 06:15:42;;;;;;;;;;;;;;;;;;5069596;28;19916;-41
2023/04/05 06:18:08;;;;;;;;;;;;;;;;;;5070204;28;19916;-40
2023/04/05 06:20:39;;;;;;;;;;;;;;;;;;5070187;28;19995;-41
2023/04/05 06:23:05;;;;;;;;;;;;;;;;;;5070261;28;19904;-41
2023/04/05 06:25:30;;;;;;;;;;;;;;;;;;5069990;28;19915;-41
2023/04/05 06:27:56;;;;;;;;;;;;;;;;;;5070099;28;19911;-41
2023/04/05 06:30:22;;;;;;;;;;;;;;;;;;5070089;28;19995;-40
2023/04/05 06:32:53;;;;;;;;;;;;;;;;;;5070353;28;19931;-41
2023/04/05 06:35:19;;;;;;;;;;;;;;;;;;5069614;28;20386;-40
2023/04/05 06:37:45;;;;;;;;;;;;;;;;;;5068635;28;19931;-40
2023/04/05 06:40:11;;;;;;;;;;;;;;;;;;5069807;28;19912;-40
2023/04/05 06:42:37;;;;;;;;;;;;;;;;;;5070092;28;19927;-40
2023/04/05 06:45:03;;;;;;;;;;;;;;;;;;5070465;28;19918;-40
2023/04/05 06:47:29;;;;;;;;;;;;;;;;;;5069783;28;19916;-40
2023/04/05 06:49:55;;;;;;;;;;;;;;;;;;5069476;28;19996;-40
2023/04/05 06:52:21;;;;;;;;;;;;;;;;;;5063429;28;19999;-40
2023/04/05 06:54:47;;;;;;;;;;;;;;;;;;5050069;28;19947;-41
2023/04/05 06:57:13;;;;;;;;;;;;;;;;;;5060130;28;19919;-41
2023/04/05 06:59:39;;;;;;;;;;;;;;;;;;5069651;28;19931;-40
2023/04/05 07:02:05;;;;;;;;;;;;;;;;;;5068769;28;20002;-40
2023/04/05 07:04:35;;;;;;;;;;;;;;;;;;5067981;28;20000;-40
2023/04/05 07:07:01;;;;;;;;;;;;;;;;;;5068363;28;19909;-40
2023/04/05 07:09:30;;;;;;;;;;;;;;;;;;5068655;28;20332;-40
2023/04/05 07:11:56;;;;;;;;;;;;;;;;;;5080728;28;20382;-40
2023/04/05 07:14:22;;;;;;;;;;;;;;;;;;5070442;28;19908;-40
2023/04/05 07:16:47;;;;;;;;;;;;;;;;;;5065711;28;20302;-40
2023/04/05 07:19:15;;;;;;;;;;;;;;;;;;5066871;28;19917;-40
2023/04/05 07:21:41;;;;;;;;;;;;;;;;;;5062577;28;19930;-40
2023/04/05 07:24:07;;;;;;;;;;;;;;;;;;5080888;28;19965;-40
2023/04/05 07:26:34;;;;;;;;;;;;;;;;;;5076308;28;20349;-40
2023/04/05 07:29:00;;;;;;;;;;;;;;;;;;5074546;28;19916;-40
2023/04/05 07:31:26;;;;;;;;;;;;;;;;;;5087189;28;19904;-40
2023/04/05 07:33:52;;;;;;;;;;;;;;;;;;5084032;28;19998;-40
2023/04/05 07:36:18;;;;;;;;;;;;;;;;;;5069930;28;19904;-40
2023/04/05 07:38:45;;;;;;;;;;;;;;;;;;5087171;28;19908;-40
2023/04/05 07:41:11;;;;;;;;;;;;;;;;;;5075096;28;19904;-40
2023/04/05 07:43:37;;;;;;;;;;;;;;;;;;5066687;28;19911;-40
2023/04/05 07:46:03;;;;;;;;;;;;;;;;;;5066880;28;19916;-40
2023/04/05 07:48:29;;;;;;;;;;;;;;;;;;5066794;28;19961;-40
2023/04/05 07:50:55;;;;;;;;;;;;;;;;;;5066955;28;19908;-40
2023/04/05 07:53:20;;;;;;;;;;;;;;;;;;5079494;28;20402;-40
2023/04/05 07:55:46;;;;;;;;;;;;;;;;;;5087376;28;19949;-40
2023/04/05 07:58:13;;;;;;;;;;;;;;;;;;5086729;28;19935;-40
2023/04/05 08:00:39;;;;;;;;;;;;;;;;;;5086819;28;20293;-40
2023/04/05 08:03:04;;;;;;;;;;;;;;;;;;5071078;28;19912;-40
2023/04/05 08:05:30;;;;;;;;;;;;;;;;;;5067269;28;19911;-40
2023/04/05 08:07:57;;;;;;;;;;;;;;;;;;5086776;28;20400;-40
2023/04/05 08:10:22;;;;;;;;;;;;;;;;;;5078140;28;19916;-40
2023/04/05 08:12:48;;;;;;;;;;;;;;;;;;5070283;28;19916;-40
2023/04/05 08:15:14;;;;;;;;;;;;;;;;;;5070305;28;19908;-40
2023/04/05 08:17:41;;;;;;;;;;;;;;;;;;5069934;28;19947;-40
2023/04/05 08:20:07;;;;;;;;;;;;;;;;;;5070362;28;19975;-40
2023/04/05 08:22:33;;;;;;;;;;;;;;;;;;5069797;28;20402;-40
2023/04/05 08:24:59;;;;;;;;;;;;;;;;;;5070473;28;19919;-41
2023/04/05 08:27:25;;;;;;;;;;;;;;;;;;5070030;28;20015;-40
2023/04/05 08:29:50;;;;;;;;;;;;;;;;;;5051721;28;19912;-40
2023/04/05 08:32:16;;;;;;;;;;;;;;;;;;5051683;28;19927;-40
2023/04/05 08:34:42;;;;;;;;;;;;;;;;;;5065717;28;19917;-41
2023/04/05 08:37:09;;;;;;;;;;;;;;;;;;5069786;28;19910;-40
2023/04/05 08:39:35;;;;;;;;;;;;;;;;;;5068183;28;19944;-40
2023/04/05 08:42:01;;;;;;;;;;;;;;;;;;5067898;28;20373;-41
2023/04/05 08:44:27;;;;;;;;;;;;;;;;;;5071306;28;20375;-41
2023/04/05 08:46:53;;;;;;;;;;;;;;;;;;5076846;28;19916;-40
2023/04/05 08:49:19;;;;;;;;;;;;;;;;;;5091471;28;19989;-40
2023/04/05 08:51:45;;;;;;;;;;;;;;;;;;5068658;28;19916;-41
2023/04/05 08:54:11;;;;;;;;;;;;;;;;;;5050926;28;20248;-41
2023/04/05 08:56:37;;;;;;;;;;;;;;;;;;5050938;28;20326;-40
2023/04/05 08:59:04;;;;;;;;;;;;;;;;;;5068666;28;19908;-41
2023/04/05 09:01:30;;;;;;;;;;;;;;;;;;5070882;28;19908;-40
2023/04/05 09:03:56;;;;;;;;;;;;;;;;;;5070696;28;20293;-41
2023/04/05 09:06:21;;;;;;;;;;;;;;;;;;5070888;28;19931;-41
2023/04/05 09:08:47;;;;;;;;;;;;;;;;;;5070405;28;20009;-41
2023/04/05 09:11:13;;;;;;;;;;;;;;;;;;5070452;28;19920;-41
2023/04/05 09:13:39;;;;;;;;;;;;;;;;;;5069345;28;19912;-41
2023/04/05 09:16:05;;;;;;;;;;;;;;;;;;5071442;28;19917;-40
2023/04/05 09:18:31;;;;;;;;;;;;;;;;;;5071362;28;19908;-40
2023/04/05 09:20:57;;;;;;;;;;;;;;;;;;5070345;28;20007;-40
2023/04/05 09:23:23;;;;;;;;;;;;;;;;;;5071181;28;20013;-40
2023/04/05 09:25:51;;;;;;;;;;;;;;;;;;5070353;28;19908;-41
2023/04/05 09:28:17;;;;;;;;;;;;;;;;;;5067703;28;19912;-40
2023/04/05 09:30:43;;;;;;;;;;;;;;;;;;5071280;28;19909;-41
2023/04/05 09:33:09;;;;;;;;;;;;;;;;;;5071265;28;19901;-40
2023/04/05 09:35:35;;;;;;;;;;;;;;;;;;5071952;28;19913;-40
2023/04/05 09:38:01;;;;;;;;;;;;;;;;;;5071116;28;19958;-40
2023/04/05 09:40:27;;;;;;;;;;;;;;;;;;5071015;28;19905;-40
2023/04/05 09:42:53;;;;;;;;;;;;;;;;;;5070594;28;19909;-41
2023/04/05 09:45:19;;;;;;;;;;;;;;;;;;5069969;28;19908;-41
2023/04/05 09:47:45;;;;;;;;;;;;;;;;;;5051488;28;19919;-40
2023/04/05 09:50:11;;;;;;;;;;;;;;;;;;5071062;28;19904;-41
2023/04/05 09:52:37;;;;;;;;;;;;;;;;;;5066417;28;19931;-40
2023/04/05 09:55:03;;;;;;;;;;;;;;;;;;5070619;28;19918;-41
2023/04/05 09:57:29;;;;;;;;;;;;;;;;;;5070232;28;19904;-40
2023/04/05 09:59:55;;;;;;;;;;;;;;;;;;5069968;28;19913;-41
2023/04/05 10:02:21;;;;;;;;;;;;;;;;;;5069766;28;19937;-41
2023/04/05 10:04:47;;;;;;;;;;;;;;;;;;5070449;28;20013;-40
2023/04/05 10:07:13;;;;;;;;;;;;;;;;;;5070335;28;19912;-41
2023/04/05 10:09:40;;;;;;;;;;;;;;;;;;5070346;28;20441;-41
2023/04/05 10:12:06;;;;;;;;;;;;;;;;;;5069473;28;19919;-41
2023/04/05 10:14:32;;;;;;;;;;;;;;;;;;5070518;28;19904;-40
2023/04/05 10:16:58;;;;;;;;;;;;;;;;;;5069996;28;19935;-40
2023/04/05 10:19:24;;;;;;;;;;;;;;;;;;5070399;28;19915;-41
2023/04/05 10:21:50;;;;;;;;;;;;;;;;;;5070271;28;19912;-41
2023/04/05 10:24:16;;;;;;;;;;;;;;;;;;5069304;28;19915;-41
2023/04/05 10:26:41;;;;;;;;;;;;;;;;;;5065410;28;20019;-40
2023/04/05 10:29:07;;;;;;;;;;;;;;;;;;5071302;28;19943;-41
2023/04/05 10:31:34;;;;;;;;;;;;;;;;;;5068539;28;19934;-40
2023/04/05 10:34:00;;;;;;;;;;;;;;;;;;5068553;28;19951;-41
2023/04/05 10:36:26;;;;;;;;;;;;;;;;;;5068866;28;19978;-41
2023/04/05 10:38:52;;;;;;;;;;;;;;;;;;5063236;28;19908;-40
2023/04/05 10:41:18;;;;;;;;;;;;;;;;;;5069625;28;19916;-41
2023/04/05 10:43:44;;;;;;;;;;;;;;;;;;5069114;28;19918;-40
2023/04/05 10:46:10;;;;;;;;;;;;;;;;;;5066037;28;19916;-40
2023/04/05 10:48:36;;;;;;;;;;;;;;;;;;5064752;28;19962;-40
2023/04/05 10:51:03;;;;;;;;;;;;;;;;;;5067949;28;19912;-40
2023/04/05 10:53:29;;;;;;;;;;;;;;;;;;5065606;28;19916;-40
2023/04/05 10:55:55;;;;;;;;;;;;;;;;;;5068744;28;19918;-40
2023/04/05 10:58:21;;;;;;;;;;;;;;;;;;5069713;28;20047;-41
2023/04/05 11:00:47;;;;;;;;;;;;;;;;;;5068846;28;19908;-40
2023/04/05 11:03:13;;;;;;;;;;;;;;;;;;5067624;28;19936;-40
2023/04/05 11:05:39;;;;;;;;;;;;;;;;;;5067132;28;19909;-41
2023/04/05 11:08:05;;;;;;;;;;;;;;;;;;5057359;28;20042;-40
2023/04/05 11:10:31;;;;;;;;;;;;;;;;;;5062303;28;21945;-40
2023/04/05 11:12:57;;;;;;;;;;;;;;;;;;5063762;28;19904;-40
2023/04/05 11:15:23;;;;;;;;;;;;;;;;;;5066817;28;20358;-40
2023/04/05 11:17:49;;;;;;;;;;;;;;;;;;5067466;28;19947;-40
2023/04/05 11:20:15;;;;;;;;;;;;;;;;;;5065535;28;20699;-40
2023/04/05 11:22:41;;;;;;;;;;;;;;;;;;5065355;28;19951;-40
2023/04/05 11:25:08;;;;;;;;;;;;;;;;;;5065066;28;19908;-40
2023/04/05 11:27:36;;;;;;;;;;;;;;;;;;5064648;28;20002;-40
2023/04/05 11:30:02;;;;;;;;;;;;;;;;;;5063514;28;20030;-39
2023/04/05 11:32:28;;;;;;;;;;;;;;;;;;5063498;28;20616;-40
2023/04/05 11:34:54;;;;;;;;;;;;;;;;;;5062823;28;20026;-40
2023/04/05 11:37:20;;;;;;;;;;;;;;;;;;5065295;28;19912;-40
2023/04/05 11:39:45;;;;;;;;;;;;;;;;;;5066813;28;19912;-40
2023/04/05 11:42:12;;;;;;;;;;;;;;;;;;5067485;28;19931;-40
2023/04/05 11:44:38;;;;;;;;;;;;;;;;;;5061688;28;19908;-40
2023/04/05 11:47:04;;;;;;;;;;;;;;;;;;5070004;28;19912;-40
2023/04/05 11:49:30;;;;;;;;;;;;;;;;;;5071480;28;19982;-40
2023/04/05 11:51:56;;;;;;;;;;;;;;;;;;5068193;28;19920;-40
2023/04/05 11:54:22;;;;;;;;;;;;;;;;;;5074533;28;19935;-40
2023/04/05 11:56:47;;;;;;;;;;;;;;;;;;5072540;28;20011;-40
2023/04/05 11:59:13;;;;;;;;;;;;;;;;;;5071021;28;19966;-41
2023/04/05 12:01:39;;;;;;;;;;;;;;;;;;5071078;28;20002;-41
2023/04/05 12:04:05;;;;;;;;;;;;;;;;;;5071285;28;20015;-42
2023/04/05 12:06:31;;;;;;;;;;;;;;;;;;5070480;28;19916;-41
2023/04/05 12:08:57;;;;;;;;;;;;;;;;;;5070274;28;19912;-42
2023/04/05 12:11:23;;;;;;;;;;;;;;;;;;5070215;28;19912;-41
2023/04/05 12:13:49;;;;;;;;;;;;;;;;;;5070605;28;19908;-41
2023/04/05 12:16:15;;;;;;;;;;;;;;;;;;5069509;28;20434;-41
2023/04/05 12:18:41;;;;;;;;;;;;;;;;;;5070557;28;20580;-41
2023/04/05 12:21:07;;;;;;;;;;;;;;;;;;5070839;28;19904;-41
2023/04/05 12:23:33;;;;;;;;;;;;;;;;;;5070599;28;19954;-41
2023/04/05 12:25:59;;;;;;;;;;;;;;;;;;5070168;28;19957;-41
2023/04/05 12:28:25;;;;;;;;;;;;;;;;;;5070419;28;19913;-41
2023/04/05 12:30:51;;;;;;;;;;;;;;;;;;5070543;28;19919;-40
2023/04/05 12:33:17;;;;;;;;;;;;;;;;;;5071117;28;20390;-41
2023/04/05 12:35:43;;;;;;;;;;;;;;;;;;5070625;28;19995;-41
2023/04/05 12:38:09;;;;;;;;;;;;;;;;;;5070382;28;19976;-42
2023/04/05 12:40:35;;;;;;;;;;;;;;;;;;5070470;28;19912;-42
2023/04/05 12:43:02;;;;;;;;;;;;;;;;;;5069795;28;19919;-41
2023/04/05 12:45:28;;;;;;;;;;;;;;;;;;5062809;28;19951;-41
2023/04/05 12:47:54;;;;;;;;;;;;;;;;;;5067577;28;19955;-43
2023/04/05 12:50:20;;;;;;;;;;;;;;;;;;5071139;28;20302;-42
2023/04/05 12:52:46;;;;;;;;;;;;;;;;;;5070663;28;19908;-42
2023/04/05 12:55:13;;;;;;;;;;;;;;;;;;5069778;28;20023;-41
2023/04/05 12:57:39;;;;;;;;;;;;;;;;;;5069939;28;19961;-42
2023/04/05 13:00:05;;;;;;;;;;;;;;;;;;5070139;28;19912;-42
2023/04/05 13:02:31;;;;;;;;;;;;;;;;;;5069051;28;19912;-41
2023/04/05 13:04:57;;;;;;;;;;;;;;;;;;5066049;28;20383;-41
2023/04/05 13:07:23;;;;;;;;;;;;;;;;;;5068863;28;19919;-42
2023/04/05 13:09:49;;;;;;;;;;;;;;;;;;5069415;28;20057;-41
2023/04/05 13:12:15;;;;;;;;;;;;;;;;;;5070088;28;19916;-41
2023/04/05 13:14:41;;;;;;;;;;;;;;;;;;5070038;28;19911;-42
2023/04/05 13:17:07;;;;;;;;;;;;;;;;;;5069372;28;19935;-41
2023/04/05 13:19:33;;;;;;;;;;;;;;;;;;5070152;28;19947;-42
2023/04/05 13:21:59;;;;;;;;;;;;;;;;;;5070325;28;19908;-41
2023/04/05 13:24:25;;;;;;;;;;;;;;;;;;5051627;28;19908;-42
2023/04/05 13:26:51;;;;;;;;;;;;;;;;;;5069500;28;19926;-43
2023/04/05 13:29:18;;;;;;;;;;;;;;;;;;5069368;28;19920;-42
2023/04/05 13:31:44;;;;;;;;;;;;;;;;;;5069587;28;19904;-42
2023/04/05 13:34:10;;;;;;;;;;;;;;;;;;5069455;28;20017;-41
2023/04/05 13:36:36;;;;;;;;;;;;;;;;;;5069330;28;20382;-41
2023/04/05 13:39:01;;;;;;;;;;;;;;;;;;5069947;28;19912;-42
2023/04/05 13:41:27;;;;;;;;;;;;;;;;;;5068489;28;19912;-42
2023/04/05 13:43:53;;;;;;;;;;;;;;;;;;5069259;28;19935;-42
2023/04/05 13:46:19;;;;;;;;;;;;;;;;;;5061919;28;19913;-42
2023/04/05 13:48:45;;;;;;;;;;;;;;;;;;5058866;28;19999;-42
2023/04/05 13:51:11;;;;;;;;;;;;;;;;;;5064888;28;19912;-42
2023/04/05 13:53:37;;;;;;;;;;;;;;;;;;5067648;28;19908;-42
2023/04/05 13:56:03;;;;;;;;;;;;;;;;;;5067795;28;19977;-42
2023/04/05 13:58:30;;;;;;;;;;;;;;;;;;5068296;28;19994;-42
2023/04/05 14:00:56;;;;;;;;;;;;;;;;;;5068549;28;19908;-42
2023/04/05 14:03:22;;;;;;;;;;;;;;;;;;5068769;28;19968;-42
2023/04/05 14:05:48;;;;;;;;;;;;;;;;;;5068326;28;19975;-42
2023/04/05 14:08:14;;;;;;;;;;;;;;;;;;5068200;28;19961;-41
2023/04/05 14:10:40;;;;;;;;;;;;;;;;;;5067718;28;19908;-41
2023/04/05 14:13:05;;;;;;;;;;;;;;;;;;5067428;28;19909;-42
2023/04/05 14:15:32;;;;;;;;;;;;;;;;;;5067720;28;19924;-42
2023/04/05 14:17:58;;;;;;;;;;;;;;;;;;5065753;28;19917;-42
2023/04/05 14:20:24;;;;;;;;;;;;;;;;;;5068130;28;20398;-42
2023/04/05 14:22:50;;;;;;;;;;;;;;;;;;5068148;28;19915;-41
2023/04/05 14:25:16;;;;;;;;;;;;;;;;;;5067979;28;19920;-42
2023/04/05 14:27:42;;;;;;;;;;;;;;;;;;5066928;28;20602;-41
2023/04/05 14:30:09;;;;;;;;;;;;;;;;;;5067180;28;19969;-41
2023/04/05 14:32:35;;;;;;;;;;;;;;;;;;5067571;28;19966;-41
2023/04/05 14:35:01;;;;;;;;;;;;;;;;;;5068743;28;19905;-42
2023/04/05 14:37:27;;;;;;;;;;;;;;;;;;5067943;28;19912;-41
2023/04/05 14:39:52;;;;;;;;;;;;;;;;;;5067940;28;19942;-42
2023/04/05 14:42:20;;;;;;;;;;;;;;;;;;5067868;28;19915;-42
2023/04/05 14:44:46;;;;;;;;;;;;;;;;;;5068046;28;20387;-42
2023/04/05 14:47:12;;;;;;;;;;;;;;;;;;5061683;28;19966;-42
2023/04/05 14:49:38;;;;;;;;;;;;;;;;;;5065208;28;19912;-43
2023/04/05 14:52:04;;;;;;;;;;;;;;;;;;5067432;28;19954;-42
2023/04/05 14:54:30;;;;;;;;;;;;;;;;;;5067535;28;19908;-43
2023/04/05 14:56:56;;;;;;;;;;;;;;;;;;5066599;28;19927;-43
2023/04/05 14:59:22;;;;;;;;;;;;;;;;;;5066260;28;19932;-43
2023/04/05 15:01:48;;;;;;;;;;;;;;;;;;5065260;28;19913;-43
2023/04/05 15:04:14;;;;;;;;;;;;;;;;;;5064674;28;19909;-43
2023/04/05 15:06:41;;;;;;;;;;;;;;;;;;5062406;28;19916;-44
2023/04/05 15:09:06;;;;;;;;;;;;;;;;;;5065206;28;19935;-42
2023/04/05 15:11:34;;;;;;;;;;;;;;;;;;5064614;28;19946;-42
2023/04/05 15:14:00;;;;;;;;;;;;;;;;;;5064901;28;19956;-44
2023/04/05 15:16:26;;;;;;;;;;;;;;;;;;5063632;28;20433;-43
2023/04/05 15:18:53;;;;;;;;;;;;;;;;;;5067194;28;19916;-42
2023/04/05 15:21:19;;;;;;;;;;;;;;;;;;5069716;28;19944;-43
2023/04/05 15:23:45;;;;;;;;;;;;;;;;;;5070906;28;19914;-43
2023/04/05 15:26:11;;;;;;;;;;;;;;;;;;5072195;28;19908;-43
2023/04/05 15:28:37;;;;;;;;;;;;;;;;;;5070168;28;20026;-42
2023/04/05 15:31:03;;;;;;;;;;;;;;;;;;5070086;28;20718;-43
2023/04/05 15:33:30;;;;;;;;;;;;;;;;;;5070408;28;19958;-44
2023/04/05 15:35:56;;;;;;;;;;;;;;;;;;5069212;28;19927;-42
2023/04/05 15:38:22;;;;;;;;;;;;;;;;;;5069419;28;20771;-43
2023/04/05 15:40:51;;;;;;;;;;;;;;;;;;5069584;28;19923;-43
2023/04/05 15:43:17;;;;;;;;;;;;;;;;;;5069811;28;19927;-43
2023/04/05 15:45:43;;;;;;;;;;;;;;;;;;5067562;28;20393;-44
2023/04/05 15:48:09;;;;;;;;;;;;;;;;;;5069183;28;19912;-44
2023/04/05 15:50:35;;;;;;;;;;;;;;;;;;5069018;28;20463;-43
2023/04/05 15:53:01;;;;;;;;;;;;;;;;;;5065316;28;19908;-43
2023/04/05 15:55:27;;;;;;;;;;;;;;;;;;5062420;28;19968;-43
2023/04/05 15:57:53;;;;;;;;;;;;;;;;;;5069069;28;19917;-42
2023/04/05 16:00:19;;;;;;;;;;;;;;;;;;5070139;28;20570;-44
2023/04/05 16:02:45;;;;;;;;;;;;;;;;;;5070707;28;19904;-42
2023/04/05 16:05:11;;;;;;;;;;;;;;;;;;5069898;28;20456;-43
2023/04/05 16:07:37;;;;;;;;;;;;;;;;;;5069662;28;19912;-42
2023/04/05 16:10:03;;;;;;;;;;;;;;;;;;5070202;28;19930;-43
2023/04/05 16:12:29;;;;;;;;;;;;;;;;;;5070122;28;19965;-42
2023/04/05 16:14:55;;;;;;;;;;;;;;;;;;5070020;28;20287;-43
2023/04/05 16:17:21;;;;;;;;;;;;;;;;;;5069042;28;19915;-43
2023/04/05 16:19:47;;;;;;;;;;;;;;;;;;5069828;28;20437;-43
2023/04/05 16:22:13;;;;;;;;;;;;;;;;;;5066601;28;19916;-43
2023/04/05 16:24:39;;;;;;;;;;;;;;;;;;5069082;28;19962;-44
2023/04/05 16:27:05;;;;;;;;;;;;;;;;;;5050661;28;19970;-43
2023/04/05 16:29:31;;;;;;;;;;;;;;;;;;5082388;28;19904;-43
2023/04/05 16:31:59;;;;;;;;;;;;;;;;;;5069401;28;19909;-43
2023/04/05 16:34:25;;;;;;;;;;;;;;;;;;5066981;28;19914;-44
2023/04/05 16:36:51;;;;;;;;;;;;;;;;;;5066344;28;19905;-43
2023/04/05 16:39:17;;;;;;;;;;;;;;;;;;5070424;28;20410;-43
2023/04/05 16:41:43;;;;;;;;;;;;;;;;;;5071165;28;19908;-43
2023/04/05 16:44:09;;;;;;;;;;;;;;;;;;5070473;28;19916;-45
2023/04/05 16:46:35;;;;;;;;;;;;;;;;;;5070423;28;19947;-44
2023/04/05 16:49:01;;;;;;;;;;;;;;;;;;5070432;28;20395;-43
2023/04/05 16:51:27;;;;;;;;;;;;;;;;;;5082697;28;19911;-46
2023/04/05 16:53:53;;;;;;;;;;;;;;;;;;5073640;28;19912;-44
2023/04/05 16:56:20;;;;;;;;;;;;;;;;;;5053175;28;19915;-46
2023/04/05 16:58:46;;;;;;;;;;;;;;;;;;5052327;28;20732;-46
2023/04/05 17:01:12;;;;;;;;;;;;;;;;;;5064774;28;19950;-47
2023/04/05 17:03:38;;;;;;;;;;;;;;;;;;5060619;28;20302;-43
2023/04/05 17:06:05;;;;;;;;;;;;;;;;;;5068621;28;19908;-44
2023/04/05 17:08:31;;;;;;;;;;;;;;;;;;5068461;28;19908;-44
2023/04/05 17:10:57;;;;;;;;;;;;;;;;;;5068041;28;19957;-47
2023/04/05 17:13:23;;;;;;;;;;;;;;;;;;5063258;28;20267;-43
2023/04/05 17:15:50;;;;;;;;;;;;;;;;;;5066078;28;19936;-45
2023/04/05 17:18:16;;;;;;;;;;;;;;;;;;5066814;28;20011;-47
2023/04/05 17:20:42;;;;;;;;;;;;;;;;;;5066592;28;20477;-44
2023/04/05 17:23:08;;;;;;;;;;;;;;;;;;5065979;28;20190;-44
2023/04/05 17:25:34;;;;;;;;;;;;;;;;;;5065385;28;19912;-45
2023/04/05 17:28:01;;;;;;;;;;;;;;;;;;5065153;28;19912;-44
2023/04/05 17:30:27;;;;;;;;;;;;;;;;;;5066379;28;20383;-44
2023/04/05 17:32:54;;;;;;;;;;;;;;;;;;5065976;28;20271;-44
2023/04/05 17:35:20;;;;;;;;;;;;;;;;;;5048293;28;19904;-45
2023/04/05 17:37:46;;;;;;;;;;;;;;;;;;5066391;28;20282;-46
2023/04/05 17:40:14;;;;;;;;;;;;;;;;;;5065321;28;19966;-44
2023/04/05 17:42:40;;;;;;;;;;;;;;;;;;5047081;28;19955;-44
2023/04/05 17:45:07;;;;;;;;;;;;;;;;;;5046610;28;20386;-45
2023/04/05 17:47:33;;;;;;;;;;;;;;;;;;5065364;28;19916;-46
2023/04/05 17:49:59;;;;;;;;;;;;;;;;;;5064687;28;19935;-45
2023/04/05 17:52:25;;;;;;;;;;;;;;;;;;5066191;28;19904;-46
2023/04/05 17:54:53;;;;;;;;;;;;;;;;;;5064751;28;19954;-44
2023/04/05 17:57:19;;;;;;;;;;;;;;;;;;5065697;28;20485;-45
2023/04/05 17:59:45;;;;;;;;;;;;;;;;;;5065593;28;19915;-45
2023/04/05 18:02:10;;;;;;;;;;;;;;;;;;5064608;28;20151;-44
2023/04/05 18:04:36;;;;;;;;;;;;;;;;;;5046306;28;19954;-44
2023/04/05 18:07:02;;;;;;;;;;;;;;;;;;5064041;28;19916;-45
2023/04/05 18:09:30;;;;;;;;;;;;;;;;;;5063562;28;20314;-44
2023/04/05 18:11:56;;;;;;;;;;;;;;;;;;5063302;28;19938;-45
2023/04/05 18:14:22;;;;;;;;;;;;;;;;;;5064564;28;20302;-44
2023/04/05 18:16:48;;;;;;;;;;;;;;;;;;5064821;28;19909;-45
2023/04/05 18:19:14;;;;;;;;;;;;;;;;;;5063481;28;19923;-43
2023/04/05 18:21:40;;;;;;;;;;;;;;;;;;5064414;28;20387;-46
2023/04/05 18:24:07;;;;;;;;;;;;;;;;;;5064359;28;20102;-43
2023/04/05 18:26:33;;;;;;;;;;;;;;;;;;5063481;28;19950;-45
2023/04/05 18:28:59;;;;;;;;;;;;;;;;;;5063812;28;19978;-44
2023/04/05 18:31:26;;;;;;;;;;;;;;;;;;5063386;28;19944;-43
2023/04/05 18:33:52;;;;;;;;;;;;;;;;;;5061328;28;19917;-44
2023/04/05 18:36:17;;;;;;;;;;;;;;;;;;5064825;28;19920;-43
2023/04/05 18:38:44;;;;;;;;;;;;;;;;;;5066530;28;19916;-44
2023/04/05 18:41:11;;;;;;;;;;;;;;;;;;5064159;28;20038;-44
2023/04/05 18:43:37;;;;;;;;;;;;;;;;;;5064422;28;20410;-43
2023/04/05 18:46:03;;;;;;;;;;;;;;;;;;5064008;28;19948;-43
2023/04/05 18:48:30;;;;;;;;;;;;;;;;;;5064255;28;19999;-44
2023/04/05 18:50:56;;;;;;;;;;;;;;;;;;5064008;28;19912;-43
2023/04/05 18:53:22;;;;;;;;;;;;;;;;;;5064465;28;19973;-43
2023/04/05 18:55:48;;;;;;;;;;;;;;;;;;5064949;28;20003;-43
2023/04/05 18:58:14;;;;;;;;;;;;;;;;;;5064955;28;20324;-44
2023/04/05 19:00:41;;;;;;;;;;;;;;;;;;5064850;28;19909;-44
2023/04/05 19:03:07;;;;;;;;;;;;;;;;;;5064063;28;19961;-43
2023/04/05 19:05:32;;;;;;;;;;;;;;;;;;5064160;28;20403;-44
2023/04/05 19:07:58;;;;;;;;;;;;;;;;;;5045818;28;20290;-44
2023/04/05 19:10:24;;;;;;;;;;;;;;;;;;5063892;28;19912;-43
2023/04/05 19:12:50;;;;;;;;;;;;;;;;;;5062983;28;19920;-44
2023/04/05 19:15:16;;;;;;;;;;;;;;;;;;5063947;28;19912;-45
2023/04/05 19:17:42;;;;;;;;;;;;;;;;;;5063849;28;19912;-44
2023/04/05 19:20:08;;;;;;;;;;;;;;;;;;5063355;28;19908;-44
2023/04/05 19:22:34;;;;;;;;;;;;;;;;;;5064023;28;19912;-44
2023/04/05 19:25:00;;;;;;;;;;;;;;;;;;5063218;28;20436;-44
2023/04/05 19:27:29;;;;;;;;;;;;;;;;;;5064007;28;19970;-44
2023/04/05 19:29:55;;;;;;;;;;;;;;;;;;5062894;28;19912;-45
2023/04/05 19:32:21;;;;;;;;;;;;;;;;;;5064024;28;19952;-44
2023/04/05 19:34:47;;;;;;;;;;;;;;;;;;5063956;28;19908;-44
2023/04/05 19:37:13;;;;;;;;;;;;;;;;;;5045293;28;19908;-44
2023/04/05 19:39:39;;;;;;;;;;;;;;;;;;5063744;28;20019;-43
2023/04/05 19:42:05;;;;;;;;;;;;;;;;;;5063844;28;20378;-42
2023/04/05 19:44:31;;;;;;;;;;;;;;;;;;5064327;28;20316;-44
2023/04/05 19:46:57;;;;;;;;;;;;;;;;;;5063035;28;19998;-43
2023/04/05 19:49:23;;;;;;;;;;;;;;;;;;5063351;28;19969;-43
2023/04/05 19:51:49;;;;;;;;;;;;;;;;;;5063588;28;19905;-44
2023/04/05 19:54:15;;;;;;;;;;;;;;;;;;5064726;28;19909;-43
2023/04/05 19:56:42;;;;;;;;;;;;;;;;;;5064209;28;20000;-43
2023/04/05 19:59:08;;;;;;;;;;;;;;;;;;5063909;28;19905;-43
2023/04/05 20:01:34;;;;;;;;;;;;;;;;;;5064121;28;20322;-44
2023/04/05 20:04:00;;;;;;;;;;;;;;;;;;5064452;28;19970;-44
2023/04/05 20:06:26;;;;;;;;;;;;;;;;;;5048450;28;19912;-44
2023/04/05 20:08:52;;;;;;;;;;;;;;;;;;5067507;28;20414;-44
2023/04/05 20:11:19;;;;;;;;;;;;;;;;;;5068071;28;19947;-43
2023/04/05 20:13:45;;;;;;;;;;;;;;;;;;5050190;28;19915;-43
2023/04/05 20:16:11;;;;;;;;;;;;;;;;;;5067717;28;19904;-45
2023/04/05 20:18:37;;;;;;;;;;;;;;;;;;5067686;28;19995;-44
2023/04/05 20:21:05;;;;;;;;;;;;;;;;;;5049113;28;20011;-44
2023/04/05 20:23:31;;;;;;;;;;;;;;;;;;5067805;28;19904;-44
2023/04/05 20:25:57;;;;;;;;;;;;;;;;;;5066885;28;20444;-44
2023/04/05 20:28:23;;;;;;;;;;;;;;;;;;5067381;28;19908;-44
2023/04/05 20:30:49;;;;;;;;;;;;;;;;;;5049377;28;20291;-43
2023/04/05 20:33:15;;;;;;;;;;;;;;;;;;5068252;28;19909;-44
2023/04/05 20:35:41;;;;;;;;;;;;;;;;;;5067320;28;20366;-45
2023/04/05 20:38:07;;;;;;;;;;;;;;;;;;5048971;28;20019;-44
2023/04/05 20:40:33;;;;;;;;;;;;;;;;;;5067191;28;19999;-44
2023/04/05 20:43:00;;;;;;;;;;;;;;;;;;5067216;28;19908;-45
2023/04/05 20:45:25;;;;;;;;;;;;;;;;;;5067309;28;19954;-43
2023/04/05 20:47:51;;;;;;;;;;;;;;;;;;5066443;28;19916;-43
2023/04/05 20:50:17;;;;;;;;;;;;;;;;;;5067545;28;19904;-43
2023/04/05 20:52:43;;;;;;;;;;;;;;;;;;5066375;28;20371;-43
2023/04/05 20:55:09;;;;;;;;;;;;;;;;;;5066380;28;20012;-44
2023/04/05 20:57:36;;;;;;;;;;;;;;;;;;5048936;28;20298;-43
2023/04/05 21:00:02;;;;;;;;;;;;;;;;;;5066787;28;19909;-43
2023/04/05 21:02:28;;;;;;;;;;;;;;;;;;5067072;28;19939;-43
2023/04/05 21:04:54;;;;;;;;;;;;;;;;;;5066499;28;19944;-45
2023/04/05 21:07:20;;;;;;;;;;;;;;;;;;5048773;28;19913;-42
2023/04/05 21:09:46;;;;;;;;;;;;;;;;;;5066763;28;19912;-43
2023/04/05 21:12:12;;;;;;;;;;;;;;;;;;5066742;28;19922;-44
2023/04/05 21:14:38;;;;;;;;;;;;;;;;;;5048508;28;20358;-43
2023/04/05 21:17:05;;;;;;;;;;;;;;;;;;5066413;28;19951;-43
2023/04/05 21:19:31;;;;;;;;;;;;;;;;;;5066486;28;19998;-44
2023/04/05 21:21:57;;;;;;;;;;;;;;;;;;5066719;28;20517;-43
2023/04/05 21:24:23;;;;;;;;;;;;;;;;;;5065928;28;20251;-45
2023/04/05 21:26:49;;;;;;;;;;;;;;;;;;5066949;28;20022;-45
2023/04/05 21:29:15;;;;;;;;;;;;;;;;;;5067402;28;20438;-43
2023/04/05 21:31:41;;;;;;;;;;;;;;;;;;5066870;28;19995;-44
2023/04/05 21:34:08;;;;;;;;;;;;;;;;;;5048191;28;20000;-44
2023/04/05 21:36:33;;;;;;;;;;;;;;;;;;5066825;28;20321;-43
2023/04/05 21:38:59;;;;;;;;;;;;;;;;;;5066184;28;19911;-44
2023/04/05 21:41:26;;;;;;;;;;;;;;;;;;5066516;28;19928;-43
2023/04/05 21:43:53;;;;;;;;;;;;;;;;;;5066094;28;20427;-44